Time;durP1;ratioP1;P1;durP2;ratioP2;P2;SDS_P1;SDS_P2;PMS_P1;PMS_P2;Temp;Humidity;BMP_temperature;BMP_pressure;BME280_temperature;BME280_humidity;BME280_pressure;Samples;Min_cycle;Max_cycle;Signal;HPM_P1;HPM_P2
2022/01/27 00:02:40;;;;;;;27.52;15.02;;;6.10;99.90;;;;;;5035086;28;20192;-85
2022/01/27 00:07:36;;;;;;;28.00;15.60;;;6.20;99.90;;;;;;5034981;28;20175;-86
2022/01/27 00:12:47;;;;;;;26.67;15.52;;;6.10;99.90;;;;;;5034650;28;20835;-79
2022/01/27 00:15:14;;;;;;;28.00;16.55;;;6.00;99.90;;;;;;5033809;28;20255;-82
2022/01/27 00:17:45;;;;;;;29.50;15.52;;;5.80;99.90;;;;;;5034446;28;20171;-83
2022/01/27 00:20:12;;;;;;;27.88;16.92;;;5.70;99.90;;;;;;5035083;28;20156;-85
2022/01/27 00:22:38;;;;;;;30.63;14.57;;;5.90;99.90;;;;;;5034697;28;20648;-86
2022/01/27 00:25:06;;;;;;;30.98;16.52;;;5.90;99.90;;;;;;5034649;28;20186;-83
2022/01/27 00:27:32;;;;;;;27.98;15.77;;;5.70;99.90;;;;;;5034754;28;20203;-85
2022/01/27 00:30:03;;;;;;;27.02;15.52;;;5.60;99.90;;;;;;5034553;28;20215;-84
2022/01/27 00:32:29;;;;;;;24.63;14.75;;;5.70;99.90;;;;;;5034543;28;20186;-80
2022/01/27 00:34:57;;;;;;;29.00;16.63;;;5.70;99.90;;;;;;5034334;28;20175;-84
2022/01/27 00:37:22;;;;;;;29.67;15.48;;;5.80;99.90;;;;;;5034512;28;20182;-85
2022/01/27 00:39:48;;;;;;;32.33;16.30;;;5.70;99.90;;;;;;5034832;28;20242;-85
2022/01/27 00:42:13;;;;;;;28.65;14.73;;;5.80;99.90;;;;;;5034241;28;20579;-80
2022/01/27 00:44:39;;;;;;;29.85;15.77;;;6.00;99.90;;;;;;5033584;28;20259;-86
2022/01/27 00:47:05;;;;;;;27.80;14.82;;;6.10;99.90;;;;;;5034382;28;20168;-85
2022/01/27 00:49:31;;;;;;;29.67;16.20;;;6.00;99.90;;;;;;5034159;28;20174;-80
2022/01/27 00:51:59;;;;;;;29.77;15.00;;;6.10;99.90;;;;;;5034216;28;20184;-85
2022/01/27 00:54:27;;;;;;;31.50;15.90;;;5.90;99.90;;;;;;5034590;28;20168;-80
2022/01/27 00:57:22;;;;;;;37.45;15.52;;;5.90;99.90;;;;;;5034404;28;20250;-85
2022/01/27 01:04:36;;;;;;;36.67;15.27;;;6.00;99.90;;;;;;5033962;28;20215;-81
2022/01/27 01:07:03;;;;;;;28.40;15.27;;;6.00;99.90;;;;;;5033634;28;20156;-84
2022/01/27 01:15:00;;;;;;;26.10;14.30;;;6.00;99.90;;;;;;5033716;28;20579;-79
2022/01/27 01:17:42;;;;;;;26.13;16.00;;;6.10;99.90;;;;;;5034242;28;20168;-84
2022/01/27 01:31:15;;;;;;;32.38;15.43;;;6.00;99.90;;;;;;5034304;28;20230;-85
2022/01/27 01:33:43;;;;;;;32.38;16.33;;;5.90;99.90;;;;;;5034104;28;20220;-79
2022/01/27 01:36:15;;;;;;;30.95;15.77;;;5.90;99.90;;;;;;5033649;28;20175;-83
2022/01/27 01:38:44;;;;;;;29.92;15.40;;;5.90;99.90;;;;;;5033834;28;20613;-85
2022/01/27 01:41:10;;;;;;;32.38;14.68;;;6.00;99.90;;;;;;5033626;28;20188;-81
2022/01/27 01:43:36;;;;;;;35.75;15.55;;;6.00;99.90;;;;;;5033769;28;20192;-83
2022/01/27 01:46:02;;;;;;;26.60;14.82;;;5.90;99.90;;;;;;5034483;28;20183;-84
2022/01/27 01:48:28;;;;;;;24.40;13.88;;;5.80;99.90;;;;;;5033864;28;20645;-84
2022/01/27 01:50:55;;;;;;;25.30;14.43;;;5.90;99.90;;;;;;5033950;28;20172;-86
2022/01/27 01:53:20;;;;;;;28.55;14.25;;;6.00;99.90;;;;;;5034562;28;20160;-86
2022/01/27 01:55:47;;;;;;;26.00;13.82;;;6.10;99.90;;;;;;5035172;28;20186;-85
2022/01/27 01:58:13;;;;;;;26.58;14.82;;;6.20;99.90;;;;;;5037747;28;20214;-84
2022/01/27 02:00:39;;;;;;;31.48;14.07;;;6.30;99.90;;;;;;5037528;28;20172;-82
2022/01/27 02:03:04;;;;;;;25.73;14.50;;;6.20;99.90;;;;;;5037558;28;20273;-79
2022/01/27 02:05:36;;;;;;;32.60;16.00;;;6.20;99.90;;;;;;5037757;28;20172;-81
2022/01/27 02:19:26;;;;;;;21.88;12.98;;;6.10;99.90;;;;;;5037047;28;20313;-79
2022/01/27 02:21:58;;;;;;;28.55;13.55;;;6.20;99.90;;;;;;5036048;28;20215;-80
2022/01/27 02:24:28;;;;;;;28.20;13.48;;;6.20;99.90;;;;;;5036969;28;20306;-85
2022/01/27 02:26:55;;;;;;;27.45;14.05;;;6.30;99.90;;;;;;5037548;28;20148;-81
2022/01/27 02:29:22;;;;;;;29.25;12.63;;;6.40;99.90;;;;;;5037260;28;20174;-84
2022/01/27 02:31:50;;;;;;;32.40;14.43;;;6.40;99.90;;;;;;5037349;28;20191;-83
2022/01/27 02:34:15;;;;;;;27.70;14.13;;;6.30;99.90;;;;;;5037310;28;20168;-82
2022/01/27 02:36:41;;;;;;;27.50;13.70;;;6.20;99.90;;;;;;5035788;28;20230;-85
2022/01/27 02:39:09;;;;;;;30.80;14.85;;;6.10;99.90;;;;;;5037490;28;20167;-79
2022/01/27 02:41:57;;;;;;;28.20;14.38;;;6.10;99.90;;;;;;5038706;28;20251;-83
2022/01/27 02:44:44;;;;;;;26.92;11.90;;;5.90;99.90;;;;;;5051093;28;20234;-84
2022/01/27 02:47:10;;;;;;;28.45;13.85;;;6.00;99.90;;;;;;5049716;28;20160;-81
2022/01/27 02:49:36;;;;;;;26.73;13.73;;;6.10;99.90;;;;;;5053355;28;20174;-82
2022/01/27 02:52:02;;;;;;;24.75;13.65;;;6.00;99.90;;;;;;5040779;28;20194;-80
2022/01/27 02:54:28;;;;;;;27.15;14.98;;;6.10;99.90;;;;;;5039079;28;20640;-79
2022/01/27 02:56:54;;;;;;;37.47;15.13;;;6.00;99.90;;;;;;5038384;28;20172;-85
2022/01/27 02:59:21;;;;;;;32.75;13.45;;;5.90;99.90;;;;;;5036058;28;20244;-85
2022/01/27 03:01:48;;;;;;;27.48;14.60;;;5.90;99.90;;;;;;5035923;28;20184;-81
2022/01/27 03:04:15;;;;;;;32.20;15.70;;;6.00;99.90;;;;;;5035948;28;20567;-79
2022/01/27 03:06:42;;;;;;;33.05;15.07;;;5.90;99.90;;;;;;5033847;28;20164;-79
2022/01/27 03:09:07;;;;;;;23.60;13.45;;;5.90;99.90;;;;;;5036245;28;20174;-85
2022/01/27 03:11:35;;;;;;;32.65;15.07;;;5.80;99.90;;;;;;5035603;28;20275;-86
2022/01/27 03:14:02;;;;;;;29.55;15.20;;;5.80;99.90;;;;;;5034992;28;20179;-82
2022/01/27 03:16:27;;;;;;;33.08;15.30;;;5.90;99.90;;;;;;5034141;28;20559;-80
2022/01/27 03:18:53;;;;;;;37.25;16.00;;;6.00;99.90;;;;;;5035842;28;20179;-84
2022/01/27 03:21:19;;;;;;;33.45;14.45;;;5.90;99.90;;;;;;5035896;28;20196;-84
2022/01/27 03:23:44;;;;;;;34.13;14.95;;;5.90;99.90;;;;;;5035682;28;20210;-78
2022/01/27 03:26:10;;;;;;;38.13;14.82;;;5.80;99.90;;;;;;5035916;28;20168;-84
2022/01/27 03:28:35;;;;;;;27.63;14.52;;;5.70;99.90;;;;;;5034606;28;20206;-84
2022/01/27 03:31:01;;;;;;;39.45;15.68;;;5.90;99.90;;;;;;5035717;28;20211;-85
2022/01/27 03:33:27;;;;;;;27.27;15.13;;;6.00;99.90;;;;;;5036094;28;20536;-86
2022/01/27 03:35:52;;;;;;;33.75;14.98;;;6.00;99.90;;;;;;5035257;28;20632;-81
2022/01/27 03:38:18;;;;;;;27.80;15.02;;;6.10;99.90;;;;;;5035410;28;20180;-79
2022/01/27 03:40:44;;;;;;;29.98;15.23;;;5.90;99.90;;;;;;5035157;28;20647;-81
2022/01/27 03:43:11;;;;;;;33.70;17.40;;;6.10;99.90;;;;;;5035090;28;20212;-86
2022/01/27 03:45:37;;;;;;;35.65;16.73;;;6.00;99.90;;;;;;5035483;28;20190;-81
2022/01/27 03:48:03;;;;;;;37.50;17.27;;;6.00;99.90;;;;;;5035857;28;20628;-78
2022/01/27 03:50:29;;;;;;;35.38;16.77;;;5.90;99.90;;;;;;5036056;28;20167;-79
2022/01/27 03:52:55;;;;;;;35.85;16.52;;;5.90;99.90;;;;;;5035389;28;20187;-85
2022/01/27 03:55:21;;;;;;;41.70;16.48;;;6.00;99.90;;;;;;5035394;28;20247;-85
2022/01/27 03:57:46;;;;;;;35.17;17.05;;;6.00;99.90;;;;;;5035500;28;20168;-79
2022/01/27 04:00:13;;;;;;;35.42;17.02;;;6.10;99.90;;;;;;5035338;28;20632;-80
2022/01/27 04:02:50;;;;;;;37.45;15.70;;;6.00;99.90;;;;;;5034360;28;20199;-85
2022/01/27 04:05:18;;;;;;;32.90;16.08;;;5.80;99.90;;;;;;5035020;28;20305;-86
2022/01/27 04:07:44;;;;;;;31.13;16.95;;;5.70;99.90;;;;;;5034755;28;20167;-80
2022/01/27 04:10:10;;;;;;;32.47;16.63;;;5.50;99.90;;;;;;5033872;28;20512;-84
2022/01/27 04:12:37;;;;;;;39.22;16.67;;;5.50;99.90;;;;;;5034638;28;20258;-84
2022/01/27 04:15:04;;;;;;;40.50;17.58;;;5.50;99.90;;;;;;5034880;28;20247;-85
2022/01/27 04:17:30;;;;;;;47.78;17.85;;;5.60;99.90;;;;;;5033787;28;20164;-84
2022/01/27 04:19:56;;;;;;;41.03;17.88;;;5.60;99.90;;;;;;5034675;28;20186;-86
2022/01/27 04:22:21;;;;;;;37.08;16.45;;;5.60;99.90;;;;;;5034809;28;20292;-81
2022/01/27 04:24:47;;;;;;;38.30;17.80;;;5.60;99.90;;;;;;5033541;28;20699;-84
2022/01/27 04:27:19;;;;;;;38.50;17.20;;;5.60;99.90;;;;;;5034803;28;20174;-86
2022/01/27 04:29:45;;;;;;;46.72;18.02;;;5.60;99.90;;;;;;5033457;28;20195;-79
2022/01/27 04:32:12;;;;;;;37.63;17.40;;;5.40;99.90;;;;;;5035648;28;20188;-85
2022/01/27 04:34:41;;;;;;;40.08;19.13;;;5.50;99.90;;;;;;5034279;28;20172;-85
2022/01/27 04:37:08;;;;;;;42.28;17.63;;;5.50;99.90;;;;;;5034527;28;20173;-80
2022/01/27 04:39:45;;;;;;;44.85;17.40;;;5.50;99.90;;;;;;5034509;28;20160;-82
2022/01/27 04:42:29;;;;;;;41.70;18.25;;;5.40;99.90;;;;;;5032976;28;20683;-82
2022/01/27 04:45:00;;;;;;;42.40;19.35;;;5.50;99.90;;;;;;5033417;28;20180;-83
2022/01/27 04:47:35;;;;;;;38.22;18.95;;;5.60;99.90;;;;;;5034438;28;20182;-85
2022/01/27 04:50:02;;;;;;;48.10;18.95;;;5.60;99.90;;;;;;5033143;28;20254;-81
2022/01/27 04:52:30;;;;;;;38.70;18.13;;;5.40;99.90;;;;;;5035267;28;20267;-86
2022/01/27 04:55:05;;;;;;;44.70;20.15;;;5.40;99.90;;;;;;5035654;28;20175;-82
2022/01/27 04:57:31;;;;;;;45.88;18.90;;;5.50;99.90;;;;;;5036214;28;20171;-85
2022/01/27 04:59:57;;;;;;;47.65;20.83;;;5.50;99.90;;;;;;5038645;28;20194;-83
2022/01/27 05:02:36;;;;;;;55.83;20.52;;;5.50;99.90;;;;;;5036790;28;20191;-84
2022/01/27 05:05:02;;;;;;;44.38;20.08;;;5.50;99.90;;;;;;5035353;28;20218;-86
2022/01/27 05:07:28;;;;;;;45.38;20.67;;;5.50;99.90;;;;;;5032877;28;20611;-83
2022/01/27 05:09:59;;;;;;;44.22;19.52;;;5.60;99.90;;;;;;5038958;28;20168;-84
2022/01/27 05:12:35;;;;;;;45.80;19.58;;;5.50;99.90;;;;;;5033839;28;20187;-85
2022/01/27 05:15:00;;;;;;;51.42;20.77;;;5.60;99.90;;;;;;5033740;28;20168;-85
2022/01/27 05:17:26;;;;;;;50.05;20.83;;;5.60;99.90;;;;;;5033865;28;20655;-85
2022/01/27 05:19:52;;;;;;;51.25;20.17;;;5.40;99.90;;;;;;5034571;28;20176;-83
2022/01/27 05:22:18;;;;;;;62.15;23.02;;;5.30;99.90;;;;;;5033475;28;20211;-85
2022/01/27 05:24:43;;;;;;;40.80;19.40;;;5.30;99.90;;;;;;5033730;28;20215;-85
2022/01/27 05:27:09;;;;;;;45.00;20.23;;;5.30;99.90;;;;;;5034167;28;20251;-81
2022/01/27 05:29:35;;;;;;;43.17;20.05;;;5.20;99.90;;;;;;5033914;28;20172;-86
2022/01/27 05:32:00;;;;;;;44.25;19.63;;;5.20;99.90;;;;;;5034093;28;20199;-79
2022/01/27 05:34:26;;;;;;;44.67;20.95;;;5.20;99.90;;;;;;5032766;28;20171;-84
2022/01/27 05:36:51;;;;;;;43.08;20.60;;;5.30;99.90;;;;;;5033679;28;20171;-85
2022/01/27 05:39:17;;;;;;;58.58;22.52;;;5.30;99.90;;;;;;5033840;28;20168;-83
2022/01/27 05:41:43;;;;;;;48.40;20.45;;;5.30;99.90;;;;;;5033180;28;20267;-82
2022/01/27 05:44:09;;;;;;;48.33;20.50;;;5.20;99.90;;;;;;5032375;28;20211;-85
2022/01/27 05:46:35;;;;;;;49.47;22.15;;;5.20;99.90;;;;;;5033299;28;20217;-83
2022/01/27 05:49:00;;;;;;;54.97;21.48;;;5.20;99.90;;;;;;5033703;28;20167;-86
2022/01/27 05:51:26;;;;;;;52.65;21.42;;;5.10;99.90;;;;;;5033327;28;20179;-83
2022/01/27 05:53:52;;;;;;;45.65;19.70;;;5.10;99.90;;;;;;5033623;28;20183;-83
2022/01/27 05:56:18;;;;;;;50.70;20.60;;;5.10;99.90;;;;;;5033092;28;20585;-79
2022/01/27 05:58:44;;;;;;;47.00;19.50;;;5.10;99.90;;;;;;5033518;28;20202;-80
2022/01/27 06:01:10;;;;;;;53.33;22.58;;;5.10;99.90;;;;;;5032324;28;20188;-84
2022/01/27 06:03:35;;;;;;;55.28;23.38;;;5.10;99.90;;;;;;5033335;28;20240;-85
2022/01/27 06:06:01;;;;;;;53.60;24.60;;;5.20;99.90;;;;;;5033660;28;20514;-83
2022/01/27 06:08:29;;;;;;;50.35;21.35;;;5.20;99.90;;;;;;5033633;28;20582;-86
2022/01/27 06:10:55;;;;;;;56.97;22.60;;;5.20;99.90;;;;;;5031995;28;20262;-86
2022/01/27 06:13:21;;;;;;;47.47;21.10;;;5.30;99.90;;;;;;5033215;28;20210;-81
2022/01/27 06:15:47;;;;;;;57.53;23.38;;;5.30;99.90;;;;;;5033616;28;20190;-84
2022/01/27 06:18:13;;;;;;;54.92;21.15;;;5.30;99.90;;;;;;5033444;28;20222;-84
2022/01/27 06:20:40;;;;;;;48.67;21.70;;;5.30;99.90;;;;;;5033469;28;20172;-84
2022/01/27 06:23:05;;;;;;;45.83;20.88;;;5.50;99.90;;;;;;5035581;28;20207;-85
2022/01/27 06:25:31;;;;;;;44.17;21.80;;;5.40;99.90;;;;;;5036297;28;20568;-86
2022/01/27 06:27:57;;;;;;;49.42;21.92;;;5.40;99.90;;;;;;5034898;28;20632;-85
2022/01/27 06:30:23;;;;;;;49.22;21.67;;;5.50;99.90;;;;;;5034841;28;20616;-79
2022/01/27 06:32:49;;;;;;;47.28;21.00;;;5.40;99.90;;;;;;5035125;28;20214;-79
2022/01/27 06:35:15;;;;;;;48.53;21.40;;;5.60;99.90;;;;;;5035194;28;20230;-87
2022/01/27 06:37:43;;;;;;;57.15;21.83;;;5.60;99.90;;;;;;5035069;28;20164;-79
2022/01/27 06:40:14;;;;;;;48.85;21.35;;;5.50;99.90;;;;;;5035076;28;20188;-84
2022/01/27 06:42:40;;;;;;;51.83;20.00;;;5.70;99.90;;;;;;5040074;28;20183;-86
2022/01/27 06:45:09;;;;;;;58.40;21.25;;;5.70;99.90;;;;;;5039702;28;20176;-84
2022/01/27 06:47:34;;;;;;;48.40;21.92;;;5.70;99.90;;;;;;5039140;28;20168;-84
2022/01/27 06:50:00;;;;;;;48.50;21.48;;;5.80;99.90;;;;;;5038154;28;20168;-83
2022/01/27 06:52:27;;;;;;;47.67;19.75;;;5.80;99.90;;;;;;5038938;28;20218;-81
2022/01/27 06:54:55;;;;;;;44.85;19.92;;;5.80;99.90;;;;;;5037619;28;20620;-86
2022/01/27 06:57:22;;;;;;;49.78;21.13;;;5.90;99.90;;;;;;5037742;28;20199;-78
2022/01/27 06:59:48;;;;;;;40.72;19.90;;;5.90;99.90;;;;;;5048828;28;20177;-78
2022/01/27 07:02:13;;;;;;;60.92;22.23;;;6.00;99.90;;;;;;5049772;28;20194;-84
2022/01/27 07:04:39;;;;;;;37.67;18.08;;;6.00;99.90;;;;;;5050316;28;20232;-82
2022/01/27 07:07:05;;;;;;;41.70;19.92;;;6.00;99.90;;;;;;5043347;28;20164;-79
2022/01/27 07:09:30;;;;;;;53.63;20.95;;;6.00;99.90;;;;;;5034776;28;20258;-80
2022/01/27 07:11:56;;;;;;;39.95;18.67;;;6.10;99.90;;;;;;5036141;28;20261;-80
2022/01/27 07:14:21;;;;;;;40.08;19.30;;;6.20;99.90;;;;;;5035118;28;20167;-79
2022/01/27 07:16:47;;;;;;;45.42;19.35;;;6.10;99.90;;;;;;5035774;28;20176;-82
2022/01/27 07:19:13;;;;;;;44.72;19.13;;;6.00;99.90;;;;;;5034166;28;20174;-82
2022/01/27 07:21:38;;;;;;;49.65;21.08;;;6.10;99.90;;;;;;5033682;28;20605;-78
2022/01/27 07:24:04;;;;;;;42.58;18.45;;;6.00;99.90;;;;;;5034895;28;20644;-82
2022/01/27 07:26:30;;;;;;;46.33;19.35;;;6.00;99.90;;;;;;5033600;28;20641;-82
2022/01/27 07:28:57;;;;;;;50.50;21.15;;;6.10;99.90;;;;;;5033846;28;20176;-80
2022/01/27 07:31:22;;;;;;;49.55;20.17;;;6.20;99.90;;;;;;5034146;28;20191;-81
2022/01/27 07:33:48;;;;;;;54.13;22.10;;;6.20;99.90;;;;;;5035051;28;20506;-83
2022/01/27 07:36:18;;;;;;;42.88;20.02;;;6.20;99.90;;;;;;5034202;28;20628;-78
2022/01/27 07:38:43;;;;;;;49.47;21.05;;;6.20;99.90;;;;;;5033919;28;20167;-80
2022/01/27 07:41:12;;;;;;;44.85;20.02;;;6.20;99.90;;;;;;5034703;28;20199;-83
2022/01/27 07:43:39;;;;;;;37.40;18.77;;;6.20;99.90;;;;;;5035135;28;20714;-84
2022/01/27 07:46:06;;;;;;;39.20;18.98;;;6.30;99.90;;;;;;5033896;28;20191;-86
2022/01/27 07:48:32;;;;;;;50.88;20.48;;;6.40;99.90;;;;;;5033872;28;20237;-85
2022/01/27 07:50:57;;;;;;;44.05;21.23;;;6.40;99.90;;;;;;5034299;28;20615;-82
2022/01/27 07:53:23;;;;;;;36.53;18.90;;;6.40;99.90;;;;;;5034244;28;20163;-82
2022/01/27 07:55:49;;;;;;;38.05;19.83;;;6.40;99.90;;;;;;5034291;28;20644;-78
2022/01/27 07:58:14;;;;;;;50.42;19.05;;;6.30;99.90;;;;;;5034006;28;20189;-80
2022/01/27 08:00:40;;;;;;;38.47;17.60;;;6.30;99.90;;;;;;5034309;28;20163;-79
2022/01/27 08:03:06;;;;;;;38.65;19.15;;;6.40;99.90;;;;;;5034285;28;20739;-85
2022/01/27 08:05:31;;;;;;;46.60;20.33;;;6.40;99.90;;;;;;5033149;28;20634;-81
2022/01/27 08:07:58;;;;;;;46.50;20.50;;;6.50;99.90;;;;;;5032919;28;20506;-81
2022/01/27 08:10:24;;;;;;;43.65;18.13;;;6.60;99.90;;;;;;5034756;28;20557;-78
2022/01/27 08:12:50;;;;;;;38.67;18.38;;;6.60;99.90;;;;;;5034043;28;20184;-81
2022/01/27 08:15:19;;;;;;;53.03;21.10;;;6.60;99.90;;;;;;5033737;28;20168;-80
2022/01/27 08:17:45;;;;;;;47.92;19.55;;;6.80;99.90;;;;;;5033583;28;20663;-77
2022/01/27 08:20:11;;;;;;;47.50;21.63;;;6.90;99.90;;;;;;5034389;28;20255;-82
2022/01/27 08:22:43;;;;;;;37.65;19.75;;;6.80;99.90;;;;;;5033542;28;20641;-81
2022/01/27 08:25:09;;;;;;;43.22;19.70;;;6.80;99.90;;;;;;5032547;28;20532;-80
2022/01/27 08:27:37;;;;;;;38.13;18.73;;;6.90;99.90;;;;;;5032756;28;20160;-84
2022/01/27 08:30:05;;;;;;;42.47;18.88;;;7.00;99.90;;;;;;5034085;28;20255;-78
2022/01/27 08:32:47;;;;;;;45.80;18.50;;;7.00;99.90;;;;;;5033205;28;20531;-84
2022/01/27 08:35:15;;;;;;;45.97;20.67;;;7.10;99.90;;;;;;5034110;28;20164;-81
2022/01/27 08:37:41;;;;;;;39.70;18.65;;;7.10;99.90;;;;;;5032832;28;20174;-79
2022/01/27 08:40:08;;;;;;;39.70;18.40;;;7.10;99.90;;;;;;5034230;28;20172;-82
2022/01/27 08:42:34;;;;;;;39.47;18.33;;;7.10;99.90;;;;;;5033719;28;20660;-83
2022/01/27 08:44:59;;;;;;;44.30;19.30;;;7.20;99.90;;;;;;5033354;28;20223;-82
2022/01/27 08:47:26;;;;;;;38.22;19.60;;;7.30;99.90;;;;;;5032835;28;20178;-87
2022/01/27 08:49:51;;;;;;;45.15;19.48;;;7.10;99.90;;;;;;5032538;28;20172;-87
2022/01/27 08:52:17;;;;;;;40.92;18.00;;;7.00;99.90;;;;;;5033626;28;20176;-88
2022/01/27 08:54:43;;;;;;;44.95;18.73;;;7.10;99.90;;;;;;5033216;28;20546;-80
2022/01/27 08:57:11;;;;;;;31.70;17.55;;;7.20;99.90;;;;;;5034698;28;20172;-85
2022/01/27 08:59:36;;;;;;;46.45;18.33;;;7.30;99.90;;;;;;5035871;28;20646;-86
2022/01/27 09:02:02;;;;;;;33.55;16.85;;;7.40;99.90;;;;;;5034936;28;20271;-80
2022/01/27 09:04:28;;;;;;;43.72;18.92;;;7.30;99.90;;;;;;5034648;28;20235;-83
2022/01/27 09:06:53;;;;;;;36.78;17.52;;;7.30;99.90;;;;;;5035367;28;20217;-86
2022/01/27 09:09:19;;;;;;;44.22;19.38;;;7.40;99.90;;;;;;5034324;28;20214;-83
2022/01/27 09:11:46;;;;;;;47.30;18.27;;;7.40;99.90;;;;;;5034658;28;20192;-81
2022/01/27 09:14:14;;;;;;;39.53;18.27;;;7.40;99.90;;;;;;5035133;28;20525;-86
2022/01/27 09:16:40;;;;;;;42.70;17.35;;;7.50;99.90;;;;;;5034317;28;20171;-82
2022/01/27 09:19:06;;;;;;;43.95;19.88;;;7.40;99.90;;;;;;5033948;28;20168;-82
2022/01/27 09:21:42;;;;;;;41.53;17.23;;;7.40;99.90;;;;;;5034054;28;20274;-81
2022/01/27 09:24:13;;;;;;;42.70;19.20;;;7.50;99.90;;;;;;5034077;28;20238;-80
2022/01/27 09:29:13;;;;;;;36.22;18.27;;;7.60;99.90;;;;;;5034245;28;20188;-82
2022/01/27 09:31:39;;;;;;;33.83;16.83;;;7.50;99.90;;;;;;5034819;28;20657;-82
2022/01/27 09:34:05;;;;;;;31.73;16.13;;;7.70;99.90;;;;;;5034416;28;20172;-81
2022/01/27 09:36:30;;;;;;;31.65;17.23;;;7.80;99.90;;;;;;5033823;28;20167;-84
2022/01/27 09:38:56;;;;;;;36.47;16.77;;;7.90;99.90;;;;;;5033930;28;20250;-85
2022/01/27 09:41:24;;;;;;;37.50;17.70;;;7.90;99.90;;;;;;5033599;28;20225;-78
2022/01/27 09:43:53;;;;;;;38.88;17.25;;;7.90;99.90;;;;;;5033472;28;20203;-78
2022/01/27 09:46:20;;;;;;;39.22;17.73;;;7.90;99.90;;;;;;5033766;28;20164;-77
2022/01/27 09:48:48;;;;;;;46.28;18.90;;;7.90;99.90;;;;;;5034476;28;20167;-77
2022/01/27 09:51:39;;;;;;;49.67;18.88;;;7.80;99.90;;;;;;5033491;28;20656;-81
2022/01/27 09:54:05;;;;;;;43.30;19.50;;;7.90;99.90;;;;;;5033753;28;20628;-78
2022/01/27 09:56:31;;;;;;;40.65;18.77;;;7.90;99.90;;;;;;5033280;28;20164;-83
2022/01/27 09:58:57;;;;;;;39.42;16.77;;;8.00;99.90;;;;;;5032386;28;20179;-83
2022/01/27 10:01:23;;;;;;;37.45;18.73;;;7.90;99.90;;;;;;5034799;28;20310;-83
2022/01/27 10:04:00;;;;;;;31.45;16.02;;;8.00;99.90;;;;;;5035031;28;20192;-78
2022/01/27 10:06:29;;;;;;;31.73;16.67;;;8.10;99.90;;;;;;5033287;28;20637;-83
2022/01/27 10:09:19;;;;;;;36.33;18.30;;;8.10;99.90;;;;;;5034273;28;20160;-87
2022/01/27 10:11:47;;;;;;;39.15;17.77;;;8.00;99.90;;;;;;5034907;28;20184;-78
2022/01/27 10:14:35;;;;;;;45.17;19.02;;;8.10;99.90;;;;;;5034050;28;20628;-80
2022/01/27 10:17:03;;;;;;;33.60;16.25;;;8.00;99.90;;;;;;5036602;28;20164;-80
2022/01/27 10:19:29;;;;;;;39.08;15.77;;;8.00;99.90;;;;;;5035142;28;20179;-85
2022/01/27 10:22:01;;;;;;;40.25;18.05;;;8.10;99.90;;;;;;5036115;28;20239;-84
2022/01/27 10:24:29;;;;;;;34.95;16.52;;;8.10;99.90;;;;;;5036928;28;20204;-81
2022/01/27 10:27:45;;;;;;;35.20;17.13;;;8.10;99.90;;;;;;5036832;28;20826;-85
2022/01/27 10:32:49;;;;;;;36.50;16.52;;;8.20;99.90;;;;;;5037834;28;20191;-82
2022/01/27 10:35:18;;;;;;;34.95;16.17;;;8.10;99.90;;;;;;5037747;28;20168;-81
2022/01/27 10:38:01;;;;;;;30.38;16.63;;;8.30;99.90;;;;;;5036772;28;20164;-84
2022/01/27 10:40:36;;;;;;;32.05;16.13;;;8.40;99.90;;;;;;5036050;28;20219;-85
2022/01/27 10:43:11;;;;;;;37.08;17.08;;;8.30;99.90;;;;;;5036546;28;20233;-79
2022/01/27 10:45:56;;;;;;;34.40;15.43;;;8.30;99.90;;;;;;5036552;28;20258;-86
2022/01/27 10:48:26;;;;;;;27.55;15.80;;;8.40;99.90;;;;;;5037784;28;20171;-84
2022/01/27 10:51:27;;;;;;;31.13;14.18;;;8.50;99.90;;;;;;5036681;28;20255;-86
2022/01/27 10:53:48;;;;;;;25.33;13.65;;;8.50;99.90;;;;;;5036645;28;20168;-82
2022/01/27 10:56:38;;;;;;;34.55;15.68;;;8.40;99.90;;;;;;5037902;28;20172;-80
2022/01/27 10:59:15;;;;;;;30.83;14.77;;;8.40;99.90;;;;;;5036189;28;20172;-83
2022/01/27 11:01:43;;;;;;;30.17;13.75;;;8.60;99.90;;;;;;5037920;28;20179;-84
2022/01/27 11:04:11;;;;;;;27.00;13.57;;;8.50;99.90;;;;;;5038092;28;20260;-82
2022/01/27 11:06:56;;;;;;;28.23;13.55;;;8.40;99.90;;;;;;5035930;28;20645;-82
2022/01/27 11:09:23;;;;;;;36.03;14.55;;;8.40;99.90;;;;;;5039698;28;20167;-82
2022/01/27 11:11:50;;;;;;;25.30;14.20;;;8.50;99.90;;;;;;5054616;28;20210;-79
2022/01/27 11:14:15;;;;;;;25.65;14.43;;;8.50;99.90;;;;;;5057485;28;20167;-86
2022/01/27 11:16:44;;;;;;;31.88;14.82;;;8.60;99.90;;;;;;5056755;28;20643;-81
2022/01/27 11:19:22;;;;;;;29.42;14.50;;;8.70;99.90;;;;;;5061039;28;20223;-86
2022/01/27 11:21:56;;;;;;;24.40;13.35;;;8.60;99.90;;;;;;5070046;28;20207;-82
2022/01/27 11:24:31;;;;;;;30.30;14.23;;;8.70;99.90;;;;;;5070575;28;20214;-82
2022/01/27 11:27:00;;;;;;;33.97;15.50;;;8.80;99.90;;;;;;5069503;28;20233;-80
2022/01/27 11:29:29;;;;;;;25.45;13.73;;;8.80;99.90;;;;;;5057184;28;20674;-80
2022/01/27 11:32:20;;;;;;;30.05;13.70;;;8.80;99.90;;;;;;5056241;28;20183;-80
2022/01/27 11:34:53;;;;;;;26.02;13.70;;;8.70;99.90;;;;;;5055519;28;20182;-83
2022/01/27 11:37:38;;;;;;;28.55;14.55;;;8.70;99.90;;;;;;5055410;28;20194;-83
2022/01/27 11:40:09;;;;;;;32.53;15.80;;;8.70;99.90;;;;;;5054773;28;20301;-82
2022/01/27 11:42:35;;;;;;;28.92;14.20;;;8.60;99.90;;;;;;5052462;28;20605;-83
2022/01/27 11:45:38;;;;;;;29.35;14.07;;;8.60;99.90;;;;;;5055798;28;20209;-84
2022/01/27 11:48:14;;;;;;;27.10;13.88;;;8.80;99.90;;;;;;4996973;28;20211;-84
2022/01/27 11:50:51;;;;;;;26.80;13.68;;;8.90;99.90;;;;;;5050319;28;20186;-80
2022/01/27 11:53:40;;;;;;;26.92;15.05;;;8.90;99.90;;;;;;5056193;28;20179;-84
2022/01/27 11:56:15;;;;;;;27.13;13.30;;;9.00;99.90;;;;;;5054978;28;20235;-79
2022/01/27 11:58:44;;;;;;;26.10;14.32;;;8.90;99.90;;;;;;5054635;28;20174;-83
2022/01/27 12:01:37;;;;;;;27.48;13.50;;;8.80;99.90;;;;;;5055194;28;20213;-85
2022/01/27 12:04:04;;;;;;;29.83;13.20;;;8.70;99.90;;;;;;5055668;28;20234;-84
2022/01/27 12:06:32;;;;;;;25.73;13.80;;;8.80;99.90;;;;;;5057459;28;20768;-88
2022/01/27 12:09:19;;;;;;;25.25;13.43;;;8.90;99.90;;;;;;5059345;28;20233;-83
2022/01/27 12:11:59;;;;;;;24.25;12.95;;;9.00;99.90;;;;;;5055633;28;20195;-86
2022/01/27 12:14:29;;;;;;;18.52;12.35;;;8.90;99.90;;;;;;5056428;28;20252;-83
2022/01/27 12:17:10;;;;;;;20.13;11.82;;;8.90;99.90;;;;;;5056645;28;20159;-85
2022/01/27 12:19:53;;;;;;;19.08;11.98;;;8.90;99.90;;;;;;5055857;28;20171;-81
2022/01/27 12:22:51;;;;;;;18.83;11.48;;;9.00;99.90;;;;;;5054113;28;20214;-81
2022/01/27 12:25:18;;;;;;;20.58;11.07;;;8.90;99.90;;;;;;5053596;28;20171;-84
2022/01/27 12:27:55;;;;;;;18.73;11.23;;;8.90;99.90;;;;;;5054319;28;20173;-86
2022/01/27 12:30:21;;;;;;;15.27;10.02;;;8.90;99.90;;;;;;5054862;28;20209;-84
2022/01/27 12:32:47;;;;;;;18.88;10.98;;;8.90;99.90;;;;;;5053770;28;20282;-82
2022/01/27 12:35:16;;;;;;;14.25;10.35;;;9.10;99.90;;;;;;5054197;28;20202;-82
2022/01/27 12:37:45;;;;;;;15.77;10.43;;;9.10;99.90;;;;;;5055228;28;20171;-81
2022/01/27 12:40:20;;;;;;;18.13;10.50;;;9.10;99.90;;;;;;5053644;28;20210;-86
2022/01/27 12:43:02;;;;;;;19.95;10.88;;;9.20;99.90;;;;;;5054000;28;20198;-81
2022/01/27 12:45:30;;;;;;;14.20;9.50;;;9.20;99.90;;;;;;5059484;28;20183;-88
2022/01/27 12:48:00;;;;;;;19.02;11.63;;;9.20;99.90;;;;;;5055401;28;20156;-80
2022/01/27 12:50:28;;;;;;;17.48;9.32;;;9.10;99.90;;;;;;5053145;28;20221;-87
2022/01/27 12:53:10;;;;;;;13.95;10.55;;;9.40;99.90;;;;;;5047303;28;20184;-82
2022/01/27 12:55:41;;;;;;;15.40;9.85;;;9.50;99.90;;;;;;5051720;28;20240;-80
2022/01/27 12:58:17;;;;;;;13.88;8.77;;;9.40;99.90;;;;;;5056241;28;20170;-86
2022/01/27 13:00:49;;;;;;;16.40;9.60;;;9.30;99.90;;;;;;5054233;28;20201;-83
2022/01/27 13:03:16;;;;;;;11.27;8.77;;;9.20;99.90;;;;;;5057132;28;20226;-88
2022/01/27 13:05:50;;;;;;;12.35;9.30;;;9.20;99.90;;;;;;5054230;28;20588;-83
2022/01/27 13:08:22;;;;;;;14.38;8.95;;;9.20;99.90;;;;;;5054342;28;20163;-81
2022/01/27 13:10:51;;;;;;;11.75;9.00;;;9.40;99.90;;;;;;5054799;28;20163;-86
2022/01/27 13:13:27;;;;;;;15.30;9.50;;;9.40;99.90;;;;;;5055725;28;20162;-80
2022/01/27 13:16:06;;;;;;;12.15;8.90;;;9.40;99.90;;;;;;5053738;28;20167;-88
2022/01/27 13:21:22;;;;;;;14.02;9.43;;;9.30;99.90;;;;;;5056164;28;20186;-85
2022/01/27 13:24:16;;;;;;;14.50;8.15;;;9.40;99.90;;;;;;5055534;28;20284;-87
2022/01/27 13:26:44;;;;;;;17.30;8.60;;;9.30;99.90;;;;;;5054664;28;20167;-80
2022/01/27 13:29:19;;;;;;;16.83;9.30;;;9.40;99.90;;;;;;5054094;28;20174;-84
2022/01/27 13:31:46;;;;;;;12.60;9.10;;;9.40;99.90;;;;;;5060334;28;20187;-80
2022/01/27 13:34:12;;;;;;;12.85;9.63;;;9.40;99.90;;;;;;5058308;28;20536;-82
2022/01/27 13:36:38;;;;;;;12.77;9.02;;;9.50;99.90;;;;;;5057461;28;20695;-85